sensor_id;sensor_type;location;lat;lon;timestamp;P1;durP1;ratioP1;P2;durP2;ratioP2
50683;SDS011;36654;45.042;38.994;2022-12-24T00:00:25;48.67;;;23.23;;
50683;SDS011;36654;45.042;38.994;2022-12-24T00:02:51;56.03;;;21.77;;
50683;SDS011;36654;45.042;38.994;2022-12-24T00:05:17;43.60;;;22.30;;
50683;SDS011;36654;45.042;38.994;2022-12-24T00:07:43;49.63;;;23.25;;
50683;SDS011;36654;45.042;38.994;2022-12-24T00:10:09;44.95;;;22.30;;
50683;SDS011;36654;45.042;38.994;2022-12-24T00:12:35;46.85;;;21.23;;
50683;SDS011;36654;45.042;38.994;2022-12-24T00:15:01;58.00;;;22.05;;
50683;SDS011;36654;45.042;38.994;2022-12-24T00:17:28;39.53;;;21.73;;
50683;SDS011;36654;45.042;38.994;2022-12-24T00:19:54;43.60;;;21.15;;
50683;SDS011;36654;45.042;38.994;2022-12-24T00:22:19;39.50;;;20.98;;
50683;SDS011;36654;45.042;38.994;2022-12-24T00:24:45;43.55;;;20.60;;
50683;SDS011;36654;45.042;38.994;2022-12-24T00:27:11;46.22;;;21.10;;
50683;SDS011;36654;45.042;38.994;2022-12-24T00:29:36;47.63;;;23.08;;
50683;SDS011;36654;45.042;38.994;2022-12-24T00:32:02;43.20;;;21.05;;
50683;SDS011;36654;45.042;38.994;2022-12-24T00:34:32;44.60;;;21.50;;
50683;SDS011;36654;45.042;38.994;2022-12-24T00:36:58;42.15;;;20.65;;
50683;SDS011;36654;45.042;38.994;2022-12-24T00:39:24;42.03;;;19.98;;
50683;SDS011;36654;45.042;38.994;2022-12-24T00:41:49;45.75;;;20.75;;
50683;SDS011;36654;45.042;38.994;2022-12-24T00:44:15;44.33;;;20.17;;
50683;SDS011;36654;45.042;38.994;2022-12-24T00:46:41;41.95;;;21.00;;
50683;SDS011;36654;45.042;38.994;2022-12-24T00:49:07;41.78;;;19.60;;
50683;SDS011;36654;45.042;38.994;2022-12-24T00:51:33;41.30;;;19.10;;
50683;SDS011;36654;45.042;38.994;2022-12-24T00:54:00;37.15;;;19.25;;
50683;SDS011;36654;45.042;38.994;2022-12-24T00:56:26;35.40;;;17.27;;
50683;SDS011;36654;45.042;38.994;2022-12-24T00:58:51;38.58;;;17.90;;
50683;SDS011;36654;45.042;38.994;2022-12-24T01:01:18;39.65;;;19.20;;
50683;SDS011;36654;45.042;38.994;2022-12-24T01:03:44;41.33;;;19.05;;
50683;SDS011;36654;45.042;38.994;2022-12-24T01:06:13;43.08;;;20.20;;
50683;SDS011;36654;45.042;38.994;2022-12-24T01:08:41;37.90;;;18.73;;
50683;SDS011;36654;45.042;38.994;2022-12-24T01:11:08;42.28;;;21.60;;
50683;SDS011;36654;45.042;38.994;2022-12-24T01:13:34;44.60;;;21.13;;
50683;SDS011;36654;45.042;38.994;2022-12-24T01:16:01;41.47;;;20.05;;
50683;SDS011;36654;45.042;38.994;2022-12-24T01:18:27;41.47;;;21.42;;
50683;SDS011;36654;45.042;38.994;2022-12-24T01:20:56;43.15;;;21.45;;
50683;SDS011;36654;45.042;38.994;2022-12-24T01:23:26;36.85;;;19.40;;
50683;SDS011;36654;45.042;38.994;2022-12-24T01:25:53;41.08;;;20.13;;
50683;SDS011;36654;45.042;38.994;2022-12-24T01:28:19;42.75;;;20.42;;
50683;SDS011;36654;45.042;38.994;2022-12-24T01:30:46;43.28;;;20.92;;
50683;SDS011;36654;45.042;38.994;2022-12-24T01:33:13;45.55;;;19.70;;
50683;SDS011;36654;45.042;38.994;2022-12-24T01:35:42;41.67;;;21.05;;
50683;SDS011;36654;45.042;38.994;2022-12-24T01:38:08;43.47;;;22.52;;
50683;SDS011;36654;45.042;38.994;2022-12-24T01:40:36;39.40;;;19.92;;
50683;SDS011;36654;45.042;38.994;2022-12-24T01:43:21;44.85;;;21.15;;
50683;SDS011;36654;45.042;38.994;2022-12-24T01:45:49;46.20;;;23.38;;
50683;SDS011;36654;45.042;38.994;2022-12-24T01:49:01;46.90;;;21.17;;
50683;SDS011;36654;45.042;38.994;2022-12-24T01:57:18;36.85;;;17.88;;
50683;SDS011;36654;45.042;38.994;2022-12-24T01:59:56;37.78;;;18.45;;
50683;SDS011;36654;45.042;38.994;2022-12-24T02:02:25;35.35;;;18.52;;
50683;SDS011;36654;45.042;38.994;2022-12-24T02:07:39;43.47;;;19.15;;
50683;SDS011;36654;45.042;38.994;2022-12-24T02:10:06;37.38;;;18.75;;
50683;SDS011;36654;45.042;38.994;2022-12-24T02:12:34;29.33;;;16.13;;
50683;SDS011;36654;45.042;38.994;2022-12-24T02:15:03;35.95;;;18.35;;
50683;SDS011;36654;45.042;38.994;2022-12-24T02:24:01;34.50;;;17.70;;
50683;SDS011;36654;45.042;38.994;2022-12-24T02:31:58;39.40;;;20.05;;
50683;SDS011;36654;45.042;38.994;2022-12-24T02:34:32;37.30;;;19.20;;
50683;SDS011;36654;45.042;38.994;2022-12-24T02:37:14;42.60;;;20.73;;
50683;SDS011;36654;45.042;38.994;2022-12-24T02:42:20;40.75;;;19.05;;
50683;SDS011;36654;45.042;38.994;2022-12-24T02:44:51;38.00;;;19.90;;
50683;SDS011;36654;45.042;38.994;2022-12-24T02:47:21;38.95;;;18.92;;
50683;SDS011;36654;45.042;38.994;2022-12-24T02:49:50;40.15;;;19.73;;
50683;SDS011;36654;45.042;38.994;2022-12-24T02:54:57;40.05;;;20.55;;
50683;SDS011;36654;45.042;38.994;2022-12-24T03:00:15;41.17;;;19.65;;
50683;SDS011;36654;45.042;38.994;2022-12-24T03:08:15;41.95;;;19.95;;
50683;SDS011;36654;45.042;38.994;2022-12-24T03:13:23;38.20;;;19.60;;
50683;SDS011;36654;45.042;38.994;2022-12-24T03:15:51;34.90;;;17.48;;
50683;SDS011;36654;45.042;38.994;2022-12-24T03:18:18;37.92;;;19.58;;
50683;SDS011;36654;45.042;38.994;2022-12-24T03:20:59;37.15;;;20.27;;
50683;SDS011;36654;45.042;38.994;2022-12-24T03:23:30;40.17;;;19.67;;
50683;SDS011;36654;45.042;38.994;2022-12-24T03:25:57;43.42;;;20.42;;
50683;SDS011;36654;45.042;38.994;2022-12-24T03:28:26;36.17;;;18.35;;
50683;SDS011;36654;45.042;38.994;2022-12-24T03:30:52;42.65;;;20.63;;
50683;SDS011;36654;45.042;38.994;2022-12-24T03:33:19;43.75;;;19.30;;
50683;SDS011;36654;45.042;38.994;2022-12-24T03:35:45;37.85;;;19.48;;
50683;SDS011;36654;45.042;38.994;2022-12-24T03:38:11;47.95;;;20.27;;
50683;SDS011;36654;45.042;38.994;2022-12-24T03:40:36;38.75;;;17.80;;
50683;SDS011;36654;45.042;38.994;2022-12-24T03:43:02;42.22;;;18.98;;
50683;SDS011;36654;45.042;38.994;2022-12-24T03:45:28;36.75;;;19.40;;
50683;SDS011;36654;45.042;38.994;2022-12-24T03:47:53;46.03;;;21.20;;
50683;SDS011;36654;45.042;38.994;2022-12-24T03:50:19;35.60;;;17.95;;
50683;SDS011;36654;45.042;38.994;2022-12-24T03:52:45;40.67;;;19.60;;
50683;SDS011;36654;45.042;38.994;2022-12-24T03:55:10;42.90;;;18.10;;
50683;SDS011;36654;45.042;38.994;2022-12-24T03:57:36;39.95;;;19.17;;
50683;SDS011;36654;45.042;38.994;2022-12-24T04:00:03;39.58;;;19.23;;
50683;SDS011;36654;45.042;38.994;2022-12-24T04:02:29;37.30;;;18.17;;
50683;SDS011;36654;45.042;38.994;2022-12-24T04:04:56;39.63;;;20.27;;
50683;SDS011;36654;45.042;38.994;2022-12-24T04:07:21;45.70;;;20.10;;
50683;SDS011;36654;45.042;38.994;2022-12-24T04:09:47;39.05;;;18.75;;
50683;SDS011;36654;45.042;38.994;2022-12-24T04:12:13;43.03;;;19.65;;
50683;SDS011;36654;45.042;38.994;2022-12-24T04:14:38;43.55;;;19.65;;
50683;SDS011;36654;45.042;38.994;2022-12-24T04:17:04;44.67;;;20.02;;
50683;SDS011;36654;45.042;38.994;2022-12-24T04:19:30;37.75;;;18.65;;
50683;SDS011;36654;45.042;38.994;2022-12-24T04:21:55;42.80;;;19.58;;
50683;SDS011;36654;45.042;38.994;2022-12-24T04:24:21;42.08;;;20.65;;
50683;SDS011;36654;45.042;38.994;2022-12-24T04:26:47;37.70;;;18.55;;
50683;SDS011;36654;45.042;38.994;2022-12-24T04:29:12;40.20;;;19.95;;
50683;SDS011;36654;45.042;38.994;2022-12-24T04:31:38;48.35;;;22.67;;
50683;SDS011;36654;45.042;38.994;2022-12-24T04:34:03;50.60;;;21.63;;
50683;SDS011;36654;45.042;38.994;2022-12-24T04:36:29;52.10;;;22.60;;
50683;SDS011;36654;45.042;38.994;2022-12-24T04:38:54;37.40;;;18.80;;
50683;SDS011;36654;45.042;38.994;2022-12-24T04:41:21;47.22;;;22.08;;
50683;SDS011;36654;45.042;38.994;2022-12-24T04:43:47;46.88;;;21.48;;
50683;SDS011;36654;45.042;38.994;2022-12-24T04:46:14;42.88;;;21.52;;
50683;SDS011;36654;45.042;38.994;2022-12-24T04:48:44;44.03;;;20.52;;
50683;SDS011;36654;45.042;38.994;2022-12-24T04:51:14;40.10;;;18.73;;
50683;SDS011;36654;45.042;38.994;2022-12-24T04:53:41;51.10;;;21.73;;
50683;SDS011;36654;45.042;38.994;2022-12-24T04:56:08;39.28;;;19.77;;
50683;SDS011;36654;45.042;38.994;2022-12-24T04:58:37;48.08;;;22.00;;
50683;SDS011;36654;45.042;38.994;2022-12-24T05:01:06;43.47;;;19.60;;
50683;SDS011;36654;45.042;38.994;2022-12-24T05:03:36;55.03;;;22.65;;
50683;SDS011;36654;45.042;38.994;2022-12-24T05:06:02;60.85;;;25.02;;
50683;SDS011;36654;45.042;38.994;2022-12-24T05:08:29;67.90;;;25.95;;
50683;SDS011;36654;45.042;38.994;2022-12-24T05:10:55;53.50;;;22.70;;
50683;SDS011;36654;45.042;38.994;2022-12-24T05:13:22;56.92;;;24.48;;
50683;SDS011;36654;45.042;38.994;2022-12-24T05:15:49;59.95;;;24.02;;
50683;SDS011;36654;45.042;38.994;2022-12-24T05:18:14;64.22;;;24.67;;
50683;SDS011;36654;45.042;38.994;2022-12-24T05:20:40;66.85;;;25.30;;
50683;SDS011;36654;45.042;38.994;2022-12-24T05:23:06;61.30;;;23.98;;
50683;SDS011;36654;45.042;38.994;2022-12-24T05:25:57;62.47;;;25.17;;
50683;SDS011;36654;45.042;38.994;2022-12-24T05:28:41;57.33;;;25.80;;
50683;SDS011;36654;45.042;38.994;2022-12-24T05:31:07;63.05;;;26.85;;
50683;SDS011;36654;45.042;38.994;2022-12-24T05:33:33;59.65;;;26.55;;
50683;SDS011;36654;45.042;38.994;2022-12-24T05:35:58;73.50;;;31.95;;
50683;SDS011;36654;45.042;38.994;2022-12-24T05:38:24;60.30;;;27.67;;
50683;SDS011;36654;45.042;38.994;2022-12-24T05:40:49;57.05;;;24.85;;
50683;SDS011;36654;45.042;38.994;2022-12-24T05:43:15;49.72;;;22.92;;
50683;SDS011;36654;45.042;38.994;2022-12-24T05:45:41;56.97;;;24.65;;
50683;SDS011;36654;45.042;38.994;2022-12-24T05:48:06;66.72;;;25.52;;
50683;SDS011;36654;45.042;38.994;2022-12-24T05:50:32;46.90;;;22.58;;
50683;SDS011;36654;45.042;38.994;2022-12-24T05:52:58;61.40;;;25.83;;
50683;SDS011;36654;45.042;38.994;2022-12-24T05:55:25;70.13;;;27.00;;
50683;SDS011;36654;45.042;38.994;2022-12-24T05:57:50;66.18;;;25.40;;
50683;SDS011;36654;45.042;38.994;2022-12-24T06:00:16;49.38;;;22.60;;
50683;SDS011;36654;45.042;38.994;2022-12-24T06:02:42;57.08;;;22.98;;
50683;SDS011;36654;45.042;38.994;2022-12-24T06:05:07;55.83;;;23.63;;
50683;SDS011;36654;45.042;38.994;2022-12-24T06:07:33;57.85;;;25.42;;
50683;SDS011;36654;45.042;38.994;2022-12-24T06:09:59;68.47;;;26.73;;
50683;SDS011;36654;45.042;38.994;2022-12-24T06:12:25;57.13;;;26.40;;
50683;SDS011;36654;45.042;38.994;2022-12-24T06:14:50;58.88;;;24.42;;
50683;SDS011;36654;45.042;38.994;2022-12-24T06:17:16;67.20;;;26.55;;
50683;SDS011;36654;45.042;38.994;2022-12-24T06:19:42;66.38;;;27.65;;
50683;SDS011;36654;45.042;38.994;2022-12-24T06:22:08;56.92;;;24.38;;
50683;SDS011;36654;45.042;38.994;2022-12-24T06:24:34;63.97;;;26.75;;
50683;SDS011;36654;45.042;38.994;2022-12-24T06:26:59;63.70;;;28.08;;
50683;SDS011;36654;45.042;38.994;2022-12-24T06:29:25;64.80;;;31.15;;
50683;SDS011;36654;45.042;38.994;2022-12-24T06:31:50;71.13;;;33.17;;
50683;SDS011;36654;45.042;38.994;2022-12-24T06:34:16;74.22;;;31.92;;
50683;SDS011;36654;45.042;38.994;2022-12-24T06:36:42;70.57;;;33.53;;
50683;SDS011;36654;45.042;38.994;2022-12-24T06:39:07;68.03;;;29.67;;
50683;SDS011;36654;45.042;38.994;2022-12-24T06:41:33;59.17;;;29.27;;
50683;SDS011;36654;45.042;38.994;2022-12-24T06:43:58;55.45;;;28.00;;
50683;SDS011;36654;45.042;38.994;2022-12-24T06:46:24;55.70;;;24.20;;
50683;SDS011;36654;45.042;38.994;2022-12-24T06:48:50;66.53;;;27.73;;
50683;SDS011;36654;45.042;38.994;2022-12-24T06:51:16;100.18;;;47.20;;
50683;SDS011;36654;45.042;38.994;2022-12-24T06:53:43;55.97;;;25.23;;
50683;SDS011;36654;45.042;38.994;2022-12-24T06:56:10;54.35;;;24.73;;
50683;SDS011;36654;45.042;38.994;2022-12-24T06:58:38;66.45;;;26.15;;
50683;SDS011;36654;45.042;38.994;2022-12-24T07:01:05;47.38;;;24.45;;
50683;SDS011;36654;45.042;38.994;2022-12-24T07:03:33;53.92;;;24.95;;
50683;SDS011;36654;45.042;38.994;2022-12-24T07:05:59;43.92;;;22.10;;
50683;SDS011;36654;45.042;38.994;2022-12-24T07:08:25;45.20;;;22.60;;
50683;SDS011;36654;45.042;38.994;2022-12-24T07:10:51;41.03;;;20.40;;
50683;SDS011;36654;45.042;38.994;2022-12-24T07:13:17;39.75;;;20.48;;
50683;SDS011;36654;45.042;38.994;2022-12-24T07:15:43;43.65;;;21.27;;
50683;SDS011;36654;45.042;38.994;2022-12-24T07:18:10;52.47;;;22.90;;
50683;SDS011;36654;45.042;38.994;2022-12-24T07:20:36;49.72;;;22.45;;
50683;SDS011;36654;45.042;38.994;2022-12-24T07:23:03;47.20;;;22.50;;
50683;SDS011;36654;45.042;38.994;2022-12-24T07:25:28;52.63;;;24.95;;
50683;SDS011;36654;45.042;38.994;2022-12-24T07:27:55;52.70;;;23.02;;
50683;SDS011;36654;45.042;38.994;2022-12-24T07:30:21;52.78;;;24.83;;
50683;SDS011;36654;45.042;38.994;2022-12-24T07:32:46;59.85;;;24.25;;
50683;SDS011;36654;45.042;38.994;2022-12-24T07:35:12;50.50;;;24.10;;
50683;SDS011;36654;45.042;38.994;2022-12-24T07:37:37;52.78;;;25.63;;
50683;SDS011;36654;45.042;38.994;2022-12-24T07:40:03;52.78;;;25.92;;
50683;SDS011;36654;45.042;38.994;2022-12-24T07:42:32;57.90;;;24.30;;
50683;SDS011;36654;45.042;38.994;2022-12-24T07:44:58;58.00;;;24.42;;
50683;SDS011;36654;45.042;38.994;2022-12-24T07:47:23;54.10;;;24.75;;
50683;SDS011;36654;45.042;38.994;2022-12-24T07:49:49;53.90;;;25.52;;
50683;SDS011;36654;45.042;38.994;2022-12-24T07:52:15;51.72;;;25.05;;
50683;SDS011;36654;45.042;38.994;2022-12-24T07:54:40;51.60;;;25.02;;
50683;SDS011;36654;45.042;38.994;2022-12-24T07:57:06;51.45;;;23.77;;
50683;SDS011;36654;45.042;38.994;2022-12-24T07:59:32;41.63;;;23.20;;
50683;SDS011;36654;45.042;38.994;2022-12-24T08:01:57;49.25;;;25.92;;
50683;SDS011;36654;45.042;38.994;2022-12-24T08:04:23;49.42;;;26.13;;
50683;SDS011;36654;45.042;38.994;2022-12-24T08:06:48;55.85;;;28.20;;
50683;SDS011;36654;45.042;38.994;2022-12-24T08:09:14;53.58;;;27.17;;
50683;SDS011;36654;45.042;38.994;2022-12-24T08:11:40;61.50;;;26.90;;
50683;SDS011;36654;45.042;38.994;2022-12-24T08:14:05;65.53;;;29.23;;
50683;SDS011;36654;45.042;38.994;2022-12-24T08:16:31;64.18;;;28.63;;
50683;SDS011;36654;45.042;38.994;2022-12-24T08:18:57;61.95;;;28.52;;
50683;SDS011;36654;45.042;38.994;2022-12-24T08:21:22;73.78;;;33.97;;
50683;SDS011;36654;45.042;38.994;2022-12-24T08:23:48;71.50;;;31.35;;
50683;SDS011;36654;45.042;38.994;2022-12-24T08:26:14;72.78;;;30.17;;
50683;SDS011;36654;45.042;38.994;2022-12-24T08:28:39;69.18;;;32.90;;
50683;SDS011;36654;45.042;38.994;2022-12-24T08:31:05;68.47;;;33.50;;
50683;SDS011;36654;45.042;38.994;2022-12-24T08:33:31;79.25;;;35.28;;
50683;SDS011;36654;45.042;38.994;2022-12-24T08:35:57;69.68;;;33.65;;
50683;SDS011;36654;45.042;38.994;2022-12-24T08:38:25;68.15;;;34.83;;
50683;SDS011;36654;45.042;38.994;2022-12-24T08:40:51;67.90;;;33.38;;
50683;SDS011;36654;45.042;38.994;2022-12-24T08:43:18;63.58;;;32.78;;
50683;SDS011;36654;45.042;38.994;2022-12-24T08:45:45;68.22;;;33.15;;
50683;SDS011;36654;45.042;38.994;2022-12-24T08:48:13;71.03;;;33.67;;
50683;SDS011;36654;45.042;38.994;2022-12-24T08:50:39;66.40;;;31.27;;
50683;SDS011;36654;45.042;38.994;2022-12-24T08:53:07;66.47;;;32.00;;
50683;SDS011;36654;45.042;38.994;2022-12-24T08:55:33;64.15;;;31.30;;
50683;SDS011;36654;45.042;38.994;2022-12-24T08:57:59;64.35;;;31.85;;
50683;SDS011;36654;45.042;38.994;2022-12-24T09:00:25;68.05;;;32.83;;
50683;SDS011;36654;45.042;38.994;2022-12-24T09:02:51;63.10;;;31.52;;
50683;SDS011;36654;45.042;38.994;2022-12-24T09:05:17;55.53;;;30.65;;
50683;SDS011;36654;45.042;38.994;2022-12-24T09:07:43;63.33;;;30.92;;
50683;SDS011;36654;45.042;38.994;2022-12-24T09:10:09;60.45;;;30.55;;
50683;SDS011;36654;45.042;38.994;2022-12-24T09:12:36;65.00;;;33.33;;
50683;SDS011;36654;45.042;38.994;2022-12-24T09:15:02;65.57;;;32.22;;
50683;SDS011;36654;45.042;38.994;2022-12-24T09:17:28;70.47;;;31.83;;
50683;SDS011;36654;45.042;38.994;2022-12-24T09:19:53;72.07;;;32.63;;
50683;SDS011;36654;45.042;38.994;2022-12-24T09:22:19;70.40;;;33.60;;
50683;SDS011;36654;45.042;38.994;2022-12-24T09:24:45;57.97;;;31.88;;
50683;SDS011;36654;45.042;38.994;2022-12-24T09:27:11;66.25;;;32.35;;
50683;SDS011;36654;45.042;38.994;2022-12-24T09:29:37;60.85;;;33.35;;
50683;SDS011;36654;45.042;38.994;2022-12-24T09:32:04;63.75;;;30.15;;
50683;SDS011;36654;45.042;38.994;2022-12-24T09:34:31;61.40;;;31.63;;
50683;SDS011;36654;45.042;38.994;2022-12-24T09:36:57;70.10;;;32.25;;
50683;SDS011;36654;45.042;38.994;2022-12-24T09:39:24;61.97;;;31.15;;
50683;SDS011;36654;45.042;38.994;2022-12-24T09:42:03;55.13;;;30.75;;
50683;SDS011;36654;45.042;38.994;2022-12-24T09:45:17;64.10;;;32.83;;
50683;SDS011;36654;45.042;38.994;2022-12-24T09:50:08;75.38;;;33.70;;
50683;SDS011;36654;45.042;38.994;2022-12-24T09:52:50;69.20;;;31.42;;
50683;SDS011;36654;45.042;38.994;2022-12-24T09:57:55;63.50;;;31.85;;
50683;SDS011;36654;45.042;38.994;2022-12-24T10:00:28;61.67;;;31.80;;
50683;SDS011;36654;45.042;38.994;2022-12-24T10:02:56;60.03;;;30.92;;
50683;SDS011;36654;45.042;38.994;2022-12-24T10:05:34;62.83;;;33.55;;
50683;SDS011;36654;45.042;38.994;2022-12-24T10:08:14;62.88;;;34.05;;
50683;SDS011;36654;45.042;38.994;2022-12-24T10:10:50;65.00;;;33.95;;
50683;SDS011;36654;45.042;38.994;2022-12-24T10:13:31;62.28;;;32.65;;
50683;SDS011;36654;45.042;38.994;2022-12-24T10:16:12;62.35;;;34.25;;
50683;SDS011;36654;45.042;38.994;2022-12-24T10:19:02;67.05;;;32.67;;
50683;SDS011;36654;45.042;38.994;2022-12-24T10:24:28;56.33;;;30.85;;
50683;SDS011;36654;45.042;38.994;2022-12-24T10:27:11;63.53;;;32.92;;
50683;SDS011;36654;45.042;38.994;2022-12-24T10:29:48;60.03;;;35.15;;
50683;SDS011;36654;45.042;38.994;2022-12-24T10:32:21;58.65;;;30.48;;
50683;SDS011;36654;45.042;38.994;2022-12-24T10:34:52;62.72;;;30.70;;
50683;SDS011;36654;45.042;38.994;2022-12-24T10:39:52;55.80;;;28.15;;
50683;SDS011;36654;45.042;38.994;2022-12-24T10:42:20;59.10;;;29.30;;
50683;SDS011;36654;45.042;38.994;2022-12-24T10:44:51;55.83;;;31.55;;
50683;SDS011;36654;45.042;38.994;2022-12-24T10:47:23;60.72;;;30.08;;
50683;SDS011;36654;45.042;38.994;2022-12-24T10:49:52;63.40;;;31.48;;
50683;SDS011;36654;45.042;38.994;2022-12-24T10:57:40;69.70;;;33.53;;
50683;SDS011;36654;45.042;38.994;2022-12-24T11:00:17;64.10;;;30.10;;
50683;SDS011;36654;45.042;38.994;2022-12-24T11:02:45;67.00;;;32.17;;
50683;SDS011;36654;45.042;38.994;2022-12-24T11:10:44;65.38;;;31.90;;
50683;SDS011;36654;45.042;38.994;2022-12-24T11:18:34;63.72;;;30.45;;
50683;SDS011;36654;45.042;38.994;2022-12-24T11:21:03;65.57;;;31.00;;
50683;SDS011;36654;45.042;38.994;2022-12-24T11:23:30;62.88;;;31.75;;
50683;SDS011;36654;45.042;38.994;2022-12-24T11:25:55;66.63;;;32.05;;
50683;SDS011;36654;45.042;38.994;2022-12-24T11:33:28;57.80;;;28.80;;
50683;SDS011;36654;45.042;38.994;2022-12-24T11:35:57;54.95;;;32.20;;
50683;SDS011;36654;45.042;38.994;2022-12-24T11:38:31;57.60;;;29.02;;
50683;SDS011;36654;45.042;38.994;2022-12-24T11:40:59;55.50;;;28.08;;
50683;SDS011;36654;45.042;38.994;2022-12-24T11:46:15;64.35;;;30.10;;
50683;SDS011;36654;45.042;38.994;2022-12-24T11:49:03;60.22;;;29.70;;
50683;SDS011;36654;45.042;38.994;2022-12-24T11:54:31;55.50;;;27.10;;
50683;SDS011;36654;45.042;38.994;2022-12-24T11:57:01;57.10;;;27.73;;
50683;SDS011;36654;45.042;38.994;2022-12-24T11:59:33;45.47;;;24.45;;
50683;SDS011;36654;45.042;38.994;2022-12-24T12:05:04;51.03;;;25.67;;
50683;SDS011;36654;45.042;38.994;2022-12-24T12:07:36;63.70;;;28.45;;
50683;SDS011;36654;45.042;38.994;2022-12-24T12:13:16;47.40;;;24.25;;
50683;SDS011;36654;45.042;38.994;2022-12-24T12:15:48;50.95;;;26.30;;
50683;SDS011;36654;45.042;38.994;2022-12-24T12:20:59;55.80;;;28.33;;
50683;SDS011;36654;45.042;38.994;2022-12-24T12:23:34;63.65;;;29.55;;
50683;SDS011;36654;45.042;38.994;2022-12-24T12:26:22;63.42;;;32.13;;
50683;SDS011;36654;45.042;38.994;2022-12-24T12:28:58;60.33;;;30.25;;
50683;SDS011;36654;45.042;38.994;2022-12-24T12:31:35;58.10;;;29.30;;
50683;SDS011;36654;45.042;38.994;2022-12-24T12:34:24;62.60;;;29.55;;
50683;SDS011;36654;45.042;38.994;2022-12-24T12:37:01;62.22;;;30.60;;
50683;SDS011;36654;45.042;38.994;2022-12-24T12:39:33;57.03;;;29.52;;
50683;SDS011;36654;45.042;38.994;2022-12-24T13:01:30;47.30;;;24.60;;
50683;SDS011;36654;45.042;38.994;2022-12-24T13:22:33;39.25;;;23.08;;
50683;SDS011;36654;45.042;38.994;2022-12-24T13:24:59;47.30;;;23.30;;
50683;SDS011;36654;45.042;38.994;2022-12-24T13:34:57;48.25;;;23.70;;
50683;SDS011;36654;45.042;38.994;2022-12-24T13:48:00;40.03;;;20.83;;
50683;SDS011;36654;45.042;38.994;2022-12-24T13:50:37;47.28;;;22.65;;
50683;SDS011;36654;45.042;38.994;2022-12-24T13:53:21;41.08;;;20.90;;
50683;SDS011;36654;45.042;38.994;2022-12-24T13:58:27;47.15;;;19.73;;
50683;SDS011;36654;45.042;38.994;2022-12-24T14:01:09;42.47;;;20.05;;
50683;SDS011;36654;45.042;38.994;2022-12-24T14:03:50;40.45;;;20.75;;
50683;SDS011;36654;45.042;38.994;2022-12-24T14:06:31;35.72;;;18.35;;
50683;SDS011;36654;45.042;38.994;2022-12-24T14:09:09;40.28;;;20.77;;
50683;SDS011;36654;45.042;38.994;2022-12-24T14:14:36;34.88;;;20.05;;
50683;SDS011;36654;45.042;38.994;2022-12-24T14:19:56;39.20;;;20.42;;
50683;SDS011;36654;45.042;38.994;2022-12-24T14:22:28;43.75;;;19.05;;
50683;SDS011;36654;45.042;38.994;2022-12-24T14:27:37;37.22;;;20.13;;
50683;SDS011;36654;45.042;38.994;2022-12-24T14:30:18;46.55;;;21.88;;
50683;SDS011;36654;45.042;38.994;2022-12-24T14:32:48;46.95;;;20.77;;
50683;SDS011;36654;45.042;38.994;2022-12-24T14:35:16;37.95;;;19.33;;
50683;SDS011;36654;45.042;38.994;2022-12-24T14:37:59;38.65;;;19.35;;
50683;SDS011;36654;45.042;38.994;2022-12-24T14:40:31;36.50;;;19.45;;
50683;SDS011;36654;45.042;38.994;2022-12-24T14:45:58;41.03;;;20.55;;
50683;SDS011;36654;45.042;38.994;2022-12-24T14:48:47;50.28;;;21.85;;
50683;SDS011;36654;45.042;38.994;2022-12-24T14:51:40;41.17;;;21.25;;
50683;SDS011;36654;45.042;38.994;2022-12-24T14:57:19;38.67;;;19.30;;
50683;SDS011;36654;45.042;38.994;2022-12-24T15:02:36;40.25;;;19.17;;
50683;SDS011;36654;45.042;38.994;2022-12-24T15:05:19;40.00;;;20.60;;
50683;SDS011;36654;45.042;38.994;2022-12-24T15:10:29;39.40;;;20.50;;
50683;SDS011;36654;45.042;38.994;2022-12-24T15:13:01;40.90;;;21.02;;
50683;SDS011;36654;45.042;38.994;2022-12-24T15:15:29;37.35;;;20.33;;
50683;SDS011;36654;45.042;38.994;2022-12-24T15:17:56;40.33;;;19.50;;
50683;SDS011;36654;45.042;38.994;2022-12-24T15:20:23;42.05;;;19.52;;
50683;SDS011;36654;45.042;38.994;2022-12-24T15:22:55;36.13;;;17.92;;
50683;SDS011;36654;45.042;38.994;2022-12-24T15:25:23;38.45;;;19.33;;
50683;SDS011;36654;45.042;38.994;2022-12-24T15:27:52;39.03;;;19.83;;
50683;SDS011;36654;45.042;38.994;2022-12-24T15:30:22;33.47;;;17.85;;
50683;SDS011;36654;45.042;38.994;2022-12-24T15:32:51;37.20;;;19.73;;
50683;SDS011;36654;45.042;38.994;2022-12-24T15:37:57;34.25;;;16.40;;
50683;SDS011;36654;45.042;38.994;2022-12-24T15:40:23;36.63;;;17.08;;
50683;SDS011;36654;45.042;38.994;2022-12-24T15:42:50;37.45;;;17.85;;
50683;SDS011;36654;45.042;38.994;2022-12-24T15:47:45;35.55;;;17.65;;
50683;SDS011;36654;45.042;38.994;2022-12-24T15:52:52;34.03;;;17.73;;
50683;SDS011;36654;45.042;38.994;2022-12-24T15:55:25;32.40;;;16.75;;
50683;SDS011;36654;45.042;38.994;2022-12-24T15:57:56;34.63;;;17.50;;
50683;SDS011;36654;45.042;38.994;2022-12-24T16:00:23;34.10;;;18.60;;
50683;SDS011;36654;45.042;38.994;2022-12-24T16:02:55;37.20;;;17.63;;
50683;SDS011;36654;45.042;38.994;2022-12-24T16:05:35;39.80;;;19.83;;
50683;SDS011;36654;45.042;38.994;2022-12-24T16:10:40;34.95;;;18.55;;
50683;SDS011;36654;45.042;38.994;2022-12-24T16:15:49;36.08;;;17.02;;
50683;SDS011;36654;45.042;38.994;2022-12-24T16:20:48;35.30;;;18.02;;
50683;SDS011;36654;45.042;38.994;2022-12-24T16:23:19;37.90;;;19.25;;
50683;SDS011;36654;45.042;38.994;2022-12-24T16:25:46;45.28;;;20.67;;
50683;SDS011;36654;45.042;38.994;2022-12-24T16:28:13;44.50;;;23.00;;
50683;SDS011;36654;45.042;38.994;2022-12-24T16:30:39;42.38;;;23.02;;
50683;SDS011;36654;45.042;38.994;2022-12-24T16:33:05;42.40;;;23.17;;
50683;SDS011;36654;45.042;38.994;2022-12-24T16:35:38;47.88;;;23.70;;
50683;SDS011;36654;45.042;38.994;2022-12-24T16:38:04;51.50;;;25.35;;
50683;SDS011;36654;45.042;38.994;2022-12-24T16:40:29;49.65;;;24.00;;
50683;SDS011;36654;45.042;38.994;2022-12-24T16:42:56;56.63;;;25.90;;
50683;SDS011;36654;45.042;38.994;2022-12-24T16:45:40;44.53;;;23.45;;
50683;SDS011;36654;45.042;38.994;2022-12-24T16:48:08;39.67;;;22.60;;
50683;SDS011;36654;45.042;38.994;2022-12-24T16:50:41;45.60;;;21.95;;
50683;SDS011;36654;45.042;38.994;2022-12-24T16:53:08;46.58;;;20.92;;
50683;SDS011;36654;45.042;38.994;2022-12-24T16:55:36;44.28;;;21.98;;
50683;SDS011;36654;45.042;38.994;2022-12-24T16:58:02;50.85;;;25.45;;
50683;SDS011;36654;45.042;38.994;2022-12-24T17:00:27;49.78;;;26.90;;
50683;SDS011;36654;45.042;38.994;2022-12-24T17:02:53;50.15;;;23.63;;
50683;SDS011;36654;45.042;38.994;2022-12-24T17:05:19;51.88;;;26.33;;
50683;SDS011;36654;45.042;38.994;2022-12-24T17:07:48;50.60;;;26.27;;
50683;SDS011;36654;45.042;38.994;2022-12-24T17:10:16;50.72;;;24.77;;
50683;SDS011;36654;45.042;38.994;2022-12-24T17:12:42;52.28;;;25.95;;
50683;SDS011;36654;45.042;38.994;2022-12-24T17:15:08;62.47;;;26.92;;